Time;durP1;ratioP1;P1;durP2;ratioP2;P2;SDS_P1;SDS_P2;PMS_P1;PMS_P2;Temp;Humidity;BMP_temperature;BMP_pressure;BME280_temperature;BME280_humidity;BME280_pressure;Samples;Min_cycle;Max_cycle;Signal;HPM_P1;HPM_P2
2022/08/14 00:00:48;;;;;;;;;;;19.90;79.60;;;;;;5081802;28;19917;-67
2022/08/14 00:03:24;;;;;;;;;;;19.80;80.80;;;;;;5079477;28;19923;-67
2022/08/14 00:05:50;;;;;;;;;;;19.70;83.00;;;;;;5050963;28;20290;-67
2022/08/14 00:08:16;;;;;;;;;;;19.60;85.50;;;;;;5079295;28;19912;-66
2022/08/14 00:10:42;;;;;;;;;;;19.50;86.90;;;;;;5081155;28;19912;-66
2022/08/14 00:13:09;;;;;;;;;;;19.50;87.10;;;;;;5080540;28;20055;-67
2022/08/14 00:15:48;;;;;;;;;;;19.40;87.00;;;;;;5079713;28;19912;-66
2022/08/14 00:18:15;;;;;;;;;;;19.40;87.70;;;;;;5077007;28;20483;-66
2022/08/14 00:20:41;;;;;;;;;;;19.40;89.20;;;;;;5081709;28;20328;-67
2022/08/14 00:23:08;;;;;;;;;;;19.40;90.00;;;;;;5078832;28;19913;-68
2022/08/14 00:25:33;;;;;;;;;;;19.40;89.50;;;;;;5082193;28;19943;-67
2022/08/14 00:27:59;;;;;;;;;;;19.40;90.00;;;;;;5084581;28;20554;-69
2022/08/14 00:30:25;;;;;;;;;;;19.30;90.20;;;;;;5078130;28;19913;-66
2022/08/14 00:32:50;;;;;;;;;;;19.20;90.90;;;;;;5085394;28;19987;-66
2022/08/14 00:35:16;;;;;;;;;;;19.20;90.90;;;;;;5083498;28;19912;-66
2022/08/14 00:37:42;;;;;;;;;;;19.20;90.70;;;;;;5082401;28;20284;-66
2022/08/14 00:40:09;;;;;;;;;;;19.20;90.90;;;;;;5081909;28;19981;-67
2022/08/14 00:42:34;;;;;;;;;;;19.10;90.80;;;;;;5084947;28;20372;-67
2022/08/14 00:45:00;;;;;;;;;;;19.10;91.10;;;;;;5087711;28;19975;-67
2022/08/14 00:47:26;;;;;;;;;;;19.00;91.20;;;;;;5088649;28;20401;-68
2022/08/14 00:49:52;;;;;;;;;;;19.00;90.90;;;;;;5084703;28;20285;-68
2022/08/14 00:52:19;;;;;;;;;;;19.00;90.30;;;;;;5083153;28;19923;-66
2022/08/14 00:54:45;;;;;;;;;;;19.00;89.20;;;;;;5091401;28;19912;-67
2022/08/14 00:57:11;;;;;;;;;;;19.10;88.70;;;;;;5082105;28;19982;-67
2022/08/14 00:59:37;;;;;;;;;;;19.10;87.10;;;;;;5089022;28;20378;-67
2022/08/14 01:02:04;;;;;;;;;;;19.10;86.60;;;;;;5070196;28;20225;-67
2022/08/14 01:04:32;;;;;;;;;;;19.00;87.00;;;;;;5088899;28;19954;-66
2022/08/14 01:06:57;;;;;;;;;;;18.90;88.20;;;;;;5071790;28;19908;-67
2022/08/14 01:09:23;;;;;;;;;;;18.90;89.00;;;;;;5080717;28;20062;-68
2022/08/14 01:11:49;;;;;;;;;;;18.90;90.00;;;;;;5082708;28;19935;-67
2022/08/14 01:14:15;;;;;;;;;;;18.80;90.10;;;;;;5086054;28;19924;-67
2022/08/14 01:16:41;;;;;;;;;;;18.70;91.10;;;;;;5086826;28;19912;-67
2022/08/14 01:21:51;;;;;;;;;;;18.70;91.60;;;;;;5081632;28;19978;-67
2022/08/14 01:24:17;;;;;;;;;;;18.60;92.50;;;;;;5077945;28;19928;-66
2022/08/14 01:26:42;;;;;;;;;;;18.50;93.20;;;;;;5060468;28;19920;-68
2022/08/14 01:29:08;;;;;;;;;;;18.40;93.50;;;;;;5068217;28;19977;-66
2022/08/14 01:31:45;;;;;;;;;;;18.40;94.40;;;;;;5084970;28;19921;-67
2022/08/14 01:34:11;;;;;;;;;;;18.30;94.20;;;;;;5078720;28;20055;-67
2022/08/14 01:36:37;;;;;;;;;;;18.30;95.50;;;;;;5085870;28;20457;-67
2022/08/14 01:39:20;;;;;;;;;;;18.30;95.20;;;;;;5080799;28;19924;-66
2022/08/14 01:41:56;;;;;;;;;;;18.20;95.70;;;;;;5083393;28;19919;-67
2022/08/14 01:44:24;;;;;;;;;;;18.10;96.30;;;;;;5081557;28;19916;-68
2022/08/14 01:46:53;;;;;;;;;;;18.10;96.60;;;;;;5078374;28;20422;-67
2022/08/14 01:49:18;;;;;;;;;;;18.00;97.30;;;;;;5081745;28;19913;-67
2022/08/14 01:51:44;;;;;;;;;;;17.90;97.90;;;;;;5077750;28;19923;-68
2022/08/14 01:54:12;;;;;;;;;;;17.90;98.50;;;;;;5079434;28;19913;-66
2022/08/14 01:56:38;;;;;;;;;;;17.80;98.80;;;;;;5081111;28;19916;-67
2022/08/14 01:59:25;;;;;;;;;;;17.70;99.00;;;;;;5076697;28;19924;-66
2022/08/14 02:01:51;;;;;;;;;;;17.70;99.20;;;;;;5084231;28;19958;-67
2022/08/14 02:04:19;;;;;;;;;;;17.80;98.70;;;;;;5083178;28;19916;-68
2022/08/14 02:06:45;;;;;;;;;;;17.70;98.20;;;;;;5083032;28;19920;-67
2022/08/14 02:09:10;;;;;;;;;;;17.70;98.30;;;;;;5082234;28;19951;-67
2022/08/14 02:11:36;;;;;;;;;;;17.70;98.70;;;;;;5082850;28;19952;-67
2022/08/14 02:14:09;;;;;;;;;;;17.80;98.90;;;;;;5085345;28;20079;-67
2022/08/14 02:16:38;;;;;;;;;;;17.80;97.60;;;;;;5093053;28;19920;-68
2022/08/14 02:19:08;;;;;;;;;;;17.90;97.80;;;;;;5090765;28;19935;-67
2022/08/14 02:21:35;;;;;;;;;;;17.90;97.00;;;;;;5092880;28;19924;-67
2022/08/14 02:24:01;;;;;;;;;;;18.00;96.30;;;;;;5089397;28;19912;-67
2022/08/14 02:26:29;;;;;;;;;;;18.10;95.70;;;;;;5082388;28;19920;-66
2022/08/14 02:28:58;;;;;;;;;;;18.20;95.10;;;;;;5082410;28;19927;-67
2022/08/14 02:31:29;;;;;;;;;;;18.10;94.80;;;;;;5083113;28;19920;-67
2022/08/14 02:33:55;;;;;;;;;;;18.10;95.00;;;;;;5079870;28;19990;-66
2022/08/14 02:36:21;;;;;;;;;;;18.10;94.80;;;;;;5084007;28;19912;-67
2022/08/14 02:38:47;;;;;;;;;;;18.10;93.10;;;;;;5060101;28;20023;-67
2022/08/14 02:41:13;;;;;;;;;;;18.10;92.70;;;;;;5078190;28;20014;-67
2022/08/14 02:43:39;;;;;;;;;;;18.10;91.30;;;;;;5081885;28;19924;-67
2022/08/14 02:46:07;;;;;;;;;;;18.00;91.20;;;;;;5080665;28;19927;-66
2022/08/14 02:48:34;;;;;;;;;;;18.00;91.20;;;;;;5084057;28;19965;-66
2022/08/14 02:51:04;;;;;;;;;;;17.90;92.00;;;;;;5089302;28;19923;-67
2022/08/14 02:53:30;;;;;;;;;;;17.80;92.70;;;;;;5077135;28;19912;-68
2022/08/14 02:55:57;;;;;;;;;;;17.80;93.40;;;;;;5080442;28;21309;-68
2022/08/14 02:58:23;;;;;;;;;;;17.70;94.10;;;;;;5079945;28;20013;-67
2022/08/14 03:00:50;;;;;;;;;;;17.60;95.10;;;;;;5084428;28;20373;-67
2022/08/14 03:03:16;;;;;;;;;;;17.50;95.70;;;;;;5083216;28;19912;-67
2022/08/14 03:05:42;;;;;;;;;;;17.50;95.80;;;;;;5062251;28;19916;-67
2022/08/14 03:08:12;;;;;;;;;;;17.50;96.40;;;;;;5079187;28;20282;-67
2022/08/14 03:10:37;;;;;;;;;;;17.50;96.50;;;;;;5077423;28;19916;-68
2022/08/14 03:13:03;;;;;;;;;;;17.50;97.00;;;;;;5079565;28;19920;-67
2022/08/14 03:15:29;;;;;;;;;;;17.40;98.00;;;;;;5082329;28;19930;-68
2022/08/14 03:17:55;;;;;;;;;;;17.30;98.00;;;;;;5081645;28;20340;-67
2022/08/14 03:20:21;;;;;;;;;;;17.20;98.30;;;;;;5077098;28;19920;-66
2022/08/14 03:22:46;;;;;;;;;;;17.20;98.80;;;;;;5081028;28;19962;-66
2022/08/14 03:25:13;;;;;;;;;;;17.10;98.60;;;;;;5075790;28;19920;-66
2022/08/14 03:27:38;;;;;;;;;;;17.20;98.00;;;;;;5058262;28;20247;-69
2022/08/14 03:30:04;;;;;;;;;;;17.10;98.10;;;;;;5077216;28;19916;-68
2022/08/14 03:32:32;;;;;;;;;;;17.10;98.00;;;;;;5077688;28;21421;-69
2022/08/14 03:34:58;;;;;;;;;;;17.10;97.60;;;;;;5078122;28;20381;-67
2022/08/14 03:37:25;;;;;;;;;;;17.10;97.60;;;;;;5074653;28;19912;-68
2022/08/14 03:39:54;;;;;;;;;;;17.00;98.00;;;;;;5076500;28;19916;-68
2022/08/14 03:42:23;;;;;;;;;;;16.90;98.60;;;;;;5077399;28;19962;-67
2022/08/14 03:44:49;;;;;;;;;;;16.90;99.50;;;;;;5075910;28;19916;-68
2022/08/14 03:47:15;;;;;;;;;;;16.80;99.60;;;;;;5078199;28;19920;-68
2022/08/14 03:49:42;;;;;;;;;;;16.80;98.90;;;;;;5082290;28;20011;-67
2022/08/14 03:52:08;;;;;;;;;;;16.80;98.70;;;;;;5083576;28;19947;-65
2022/08/14 03:54:34;;;;;;;;;;;16.80;98.20;;;;;;5082503;28;19983;-65
2022/08/14 03:57:00;;;;;;;;;;;16.80;98.80;;;;;;5080178;28;20011;-67
2022/08/14 04:02:29;;;;;;;;;;;16.80;99.90;;;;;;5080625;28;19920;-67
2022/08/14 04:04:54;;;;;;;;;;;16.80;99.30;;;;;;5062330;28;19919;-66
2022/08/14 04:07:21;;;;;;;;;;;16.80;98.90;;;;;;5076108;28;20001;-67
2022/08/14 04:09:46;;;;;;;;;;;16.80;98.70;;;;;;5072559;28;19921;-68
2022/08/14 04:12:12;;;;;;;;;;;16.80;98.30;;;;;;5072388;28;19916;-67
2022/08/14 04:14:37;;;;;;;;;;;16.80;98.40;;;;;;5082542;28;20062;-68
2022/08/14 04:17:03;;;;;;;;;;;16.70;98.40;;;;;;5078275;28;20270;-68
2022/08/14 04:19:29;;;;;;;;;;;16.70;98.30;;;;;;5078837;28;19916;-68
2022/08/14 04:21:54;;;;;;;;;;;16.70;98.60;;;;;;5078575;28;19919;-67
2022/08/14 04:24:20;;;;;;;;;;;16.60;99.10;;;;;;5080355;28;19919;-67
2022/08/14 04:26:46;;;;;;;;;;;16.70;98.50;;;;;;5081002;28;19913;-66
2022/08/14 04:29:12;;;;;;;;;;;16.70;98.40;;;;;;5076361;28;19912;-66
2022/08/14 04:31:38;;;;;;;;;;;16.60;98.40;;;;;;5074878;28;19922;-67
2022/08/14 04:34:04;;;;;;;;;;;16.60;99.00;;;;;;5069909;28;19912;-66
2022/08/14 04:36:31;;;;;;;;;;;16.70;98.90;;;;;;5082686;28;19919;-66
2022/08/14 04:44:25;;;;;;;;;;;16.60;99.10;;;;;;5079978;28;20325;-67
2022/08/14 04:49:35;;;;;;;;;;;16.50;99.90;;;;;;5079575;28;20431;-67
2022/08/14 04:52:03;;;;;;;;;;;16.30;99.90;;;;;;5080525;28;19916;-68
2022/08/14 04:54:29;;;;;;;;;;;16.20;99.90;;;;;;5079467;28;19958;-67
2022/08/14 04:56:55;;;;;;;;;;;16.20;99.90;;;;;;5084436;28;20331;-67
2022/08/14 04:59:21;;;;;;;;;;;16.20;99.90;;;;;;5080938;28;19920;-67
2022/08/14 05:01:46;;;;;;;;;;;16.20;99.90;;;;;;5075982;28;20882;-67
2022/08/14 05:04:12;;;;;;;;;;;16.20;99.90;;;;;;5079453;28;20015;-67
2022/08/14 05:06:38;;;;;;;;;;;16.10;99.90;;;;;;5071582;28;19918;-67
2022/08/14 05:09:04;;;;;;;;;;;16.00;99.90;;;;;;5083668;28;19920;-68
2022/08/14 05:11:32;;;;;;;;;;;16.00;99.90;;;;;;5073055;28;19912;-66
2022/08/14 05:14:01;;;;;;;;;;;16.10;99.90;;;;;;5079469;28;19919;-67
2022/08/14 05:16:30;;;;;;;;;;;16.20;99.90;;;;;;5057584;28;19947;-66
2022/08/14 05:18:56;;;;;;;;;;;16.30;99.90;;;;;;5077657;28;19916;-67
2022/08/14 05:21:23;;;;;;;;;;;16.30;99.90;;;;;;5080838;28;20210;-68
2022/08/14 05:23:50;;;;;;;;;;;16.40;99.90;;;;;;5083758;28;20281;-67
2022/08/14 05:26:17;;;;;;;;;;;16.50;99.90;;;;;;5085086;28;19919;-67
2022/08/14 05:28:43;;;;;;;;;;;16.50;99.90;;;;;;5085876;28;20226;-66
2022/08/14 05:31:09;;;;;;;;;;;16.40;99.90;;;;;;5079027;28;19912;-68
2022/08/14 05:33:35;;;;;;;;;;;16.40;99.90;;;;;;5079488;28;19916;-67
2022/08/14 05:36:03;;;;;;;;;;;16.30;99.90;;;;;;5077091;28;19920;-66
2022/08/14 05:38:34;;;;;;;;;;;16.20;99.90;;;;;;5080139;28;20378;-66
2022/08/14 05:41:01;;;;;;;;;;;16.20;99.90;;;;;;5079624;28;19920;-67
2022/08/14 05:43:26;;;;;;;;;;;16.20;99.90;;;;;;5080731;28;19919;-67
2022/08/14 05:45:52;;;;;;;;;;;16.30;99.90;;;;;;5077910;28;19912;-67
2022/08/14 05:48:17;;;;;;;;;;;16.30;99.90;;;;;;5080900;28;20702;-67
2022/08/14 05:50:43;;;;;;;;;;;16.30;99.90;;;;;;5063239;28;19950;-66
2022/08/14 05:53:09;;;;;;;;;;;16.40;99.90;;;;;;5078973;28;20440;-66
2022/08/14 05:55:35;;;;;;;;;;;16.40;99.90;;;;;;5081062;28;20145;-66
2022/08/14 05:58:01;;;;;;;;;;;16.60;99.90;;;;;;5081811;28;20305;-67
2022/08/14 06:00:29;;;;;;;;;;;16.70;99.90;;;;;;5087860;28;19920;-67
2022/08/14 06:02:55;;;;;;;;;;;16.70;99.90;;;;;;5088469;28;19927;-65
2022/08/14 06:05:24;;;;;;;;;;;16.80;99.90;;;;;;5083889;28;19918;-67
2022/08/14 06:07:49;;;;;;;;;;;16.90;99.90;;;;;;5081942;28;19975;-67
2022/08/14 06:10:15;;;;;;;;;;;17.10;99.60;;;;;;5086532;28;19920;-67
2022/08/14 06:12:41;;;;;;;;;;;17.20;99.80;;;;;;5081588;28;20250;-66
2022/08/14 06:15:07;;;;;;;;;;;17.30;97.30;;;;;;5075822;28;20266;-66
2022/08/14 06:17:46;;;;;;;;;;;17.30;96.90;;;;;;5082927;28;20345;-66
2022/08/14 06:20:12;;;;;;;;;;;17.40;96.70;;;;;;5082609;28;19920;-67
2022/08/14 06:22:39;;;;;;;;;;;17.40;96.60;;;;;;5083159;28;19916;-67
2022/08/14 06:25:05;;;;;;;;;;;17.50;96.90;;;;;;5083339;28;20392;-66
2022/08/14 06:27:34;;;;;;;;;;;17.60;95.70;;;;;;5074422;28;20011;-67
2022/08/14 06:30:00;;;;;;;;;;;17.70;94.70;;;;;;5085719;28;20312;-69
2022/08/14 06:32:25;;;;;;;;;;;17.70;94.10;;;;;;5079039;28;19933;-67
2022/08/14 06:34:51;;;;;;;;;;;17.70;94.00;;;;;;5079961;28;19969;-67
2022/08/14 06:37:17;;;;;;;;;;;17.90;93.50;;;;;;5079554;28;20358;-67
2022/08/14 06:39:43;;;;;;;;;;;17.90;93.00;;;;;;5072935;28;19923;-66
2022/08/14 06:42:08;;;;;;;;;;;18.00;92.70;;;;;;5080223;28;19924;-66
2022/08/14 06:44:34;;;;;;;;;;;18.00;92.60;;;;;;5078693;28;19912;-68
2022/08/14 06:47:01;;;;;;;;;;;18.10;92.40;;;;;;5077398;28;19935;-68
2022/08/14 06:49:27;;;;;;;;;;;18.20;92.10;;;;;;5083048;28;19912;-67
2022/08/14 06:51:53;;;;;;;;;;;18.40;91.70;;;;;;5082255;28;19916;-69
2022/08/14 06:54:18;;;;;;;;;;;18.50;91.00;;;;;;5087027;28;20319;-67
2022/08/14 06:56:44;;;;;;;;;;;18.60;90.20;;;;;;5089980;28;19966;-67
2022/08/14 06:59:09;;;;;;;;;;;18.80;90.00;;;;;;5083969;28;19916;-66
2022/08/14 07:07:03;;;;;;;;;;;19.10;88.60;;;;;;5085064;28;20025;-66
2022/08/14 07:09:29;;;;;;;;;;;19.20;89.10;;;;;;5084117;28;19938;-68
2022/08/14 07:11:54;;;;;;;;;;;19.30;88.60;;;;;;5078524;28;19959;-67
2022/08/14 07:14:20;;;;;;;;;;;19.50;87.50;;;;;;5085702;28;19912;-68
2022/08/14 07:16:45;;;;;;;;;;;19.60;86.70;;;;;;5085495;28;20301;-68
2022/08/14 07:19:11;;;;;;;;;;;19.70;84.90;;;;;;5082827;28;19990;-67
2022/08/14 07:21:37;;;;;;;;;;;19.90;84.40;;;;;;5079217;28;19950;-68
2022/08/14 07:24:03;;;;;;;;;;;20.10;82.20;;;;;;5086846;28;20443;-67
2022/08/14 07:26:29;;;;;;;;;;;20.20;80.50;;;;;;5082190;28;19913;-67
2022/08/14 07:28:54;;;;;;;;;;;20.40;79.40;;;;;;5079587;28;20310;-67
2022/08/14 07:31:20;;;;;;;;;;;20.40;77.10;;;;;;5080698;28;19920;-68
2022/08/14 07:33:47;;;;;;;;;;;20.60;75.80;;;;;;5081419;28;20433;-67
2022/08/14 07:36:13;;;;;;;;;;;20.80;74.20;;;;;;5081003;28;19946;-66
2022/08/14 07:38:42;;;;;;;;;;;21.00;71.60;;;;;;5080643;28;20301;-67
2022/08/14 07:41:09;;;;;;;;;;;21.30;69.60;;;;;;5084256;28;19913;-67
2022/08/14 07:43:35;;;;;;;;;;;21.50;69.40;;;;;;5083963;28;20036;-67
2022/08/14 07:46:01;;;;;;;;;;;21.70;67.10;;;;;;5084244;28;20281;-67
2022/08/14 07:48:27;;;;;;;;;;;21.70;66.10;;;;;;5076368;28;19947;-66
2022/08/14 07:50:53;;;;;;;;;;;21.80;65.50;;;;;;5077865;28;20023;-66
2022/08/14 07:53:19;;;;;;;;;;;21.80;66.30;;;;;;5082272;28;19912;-67
2022/08/14 07:55:45;;;;;;;;;;;21.80;65.50;;;;;;5076714;28;20374;-68
2022/08/14 07:58:12;;;;;;;;;;;22.00;65.00;;;;;;5081775;28;19920;-68
2022/08/14 08:00:37;;;;;;;;;;;22.10;65.70;;;;;;5077762;28;19932;-66
2022/08/14 08:03:07;;;;;;;;;;;22.10;64.10;;;;;;5084779;28;19920;-66
2022/08/14 08:05:33;;;;;;;;;;;22.20;64.90;;;;;;5063294;28;20294;-66
2022/08/14 08:07:58;;;;;;;;;;;22.30;64.20;;;;;;5082992;28;19912;-69
2022/08/14 08:10:31;;;;;;;;;;;22.40;63.10;;;;;;5084263;28;19916;-67
2022/08/14 08:12:56;;;;;;;;;;;22.50;62.40;;;;;;5076866;28;19920;-67
2022/08/14 08:15:22;;;;;;;;;;;22.70;61.10;;;;;;5084442;28;19927;-68
2022/08/14 08:17:49;;;;;;;;;;;22.80;61.50;;;;;;5089342;28;19913;-67
2022/08/14 08:20:16;;;;;;;;;;;22.90;60.90;;;;;;5076157;28;20006;-66
2022/08/14 08:22:42;;;;;;;;;;;23.10;60.20;;;;;;5081175;28;20352;-66
2022/08/14 08:25:08;;;;;;;;;;;23.20;59.20;;;;;;5076119;28;19912;-68
2022/08/14 08:27:33;;;;;;;;;;;23.30;59.50;;;;;;5087346;28;19912;-66
2022/08/14 08:30:07;;;;;;;;;;;23.40;58.90;;;;;;5074037;28;20011;-67
2022/08/14 08:32:40;;;;;;;;;;;23.50;58.30;;;;;;5075853;28;20276;-66
2022/08/14 08:35:09;;;;;;;;;;;23.60;58.50;;;;;;5083396;28;20025;-66
2022/08/14 08:37:35;;;;;;;;;;;23.70;57.10;;;;;;5073457;28;19927;-66
2022/08/14 08:40:00;;;;;;;;;;;23.90;56.60;;;;;;5086021;28;19959;-67
2022/08/14 08:42:26;;;;;;;;;;;24.00;56.30;;;;;;5088470;28;20311;-66
2022/08/14 08:44:55;;;;;;;;;;;24.20;55.10;;;;;;5076383;28;19939;-67
2022/08/14 08:47:20;;;;;;;;;;;24.20;54.70;;;;;;5084097;28;19908;-67
2022/08/14 08:49:46;;;;;;;;;;;24.30;53.70;;;;;;5078817;28;20332;-67
2022/08/14 08:52:11;;;;;;;;;;;24.40;51.30;;;;;;5080851;28;20018;-68
2022/08/14 08:54:37;;;;;;;;;;;24.40;51.40;;;;;;5079933;28;20007;-66
2022/08/14 08:57:10;;;;;;;;;;;24.70;50.30;;;;;;5071478;28;20303;-68
2022/08/14 08:59:36;;;;;;;;;;;24.80;50.10;;;;;;5089555;28;19969;-68
2022/08/14 09:02:03;;;;;;;;;;;24.90;48.80;;;;;;5077745;28;19920;-68
2022/08/14 09:04:30;;;;;;;;;;;25.00;47.90;;;;;;5079399;28;19916;-66
2022/08/14 09:06:56;;;;;;;;;;;25.10;47.20;;;;;;5077667;28;20384;-66
2022/08/14 09:09:21;;;;;;;;;;;25.20;46.90;;;;;;5074074;28;19916;-66
2022/08/14 09:11:47;;;;;;;;;;;25.40;46.20;;;;;;5076425;28;19912;-66
2022/08/14 09:14:13;;;;;;;;;;;25.50;45.90;;;;;;5073524;28;20275;-65
2022/08/14 09:16:38;;;;;;;;;;;25.60;46.40;;;;;;5078991;28;19938;-66
2022/08/14 09:19:04;;;;;;;;;;;25.60;45.10;;;;;;5078262;28;19932;-68
2022/08/14 09:21:32;;;;;;;;;;;25.80;44.80;;;;;;5076948;28;19926;-68
2022/08/14 09:23:58;;;;;;;;;;;25.90;44.20;;;;;;5076666;28;19922;-66
2022/08/14 09:26:23;;;;;;;;;;;26.00;44.40;;;;;;5071868;28;19916;-66
2022/08/14 09:28:49;;;;;;;;;;;26.00;44.20;;;;;;5065706;28;19960;-65
2022/08/14 09:31:15;;;;;;;;;;;26.10;43.90;;;;;;5068975;28;19916;-69
2022/08/14 09:34:04;;;;;;;;;;;26.10;43.80;;;;;;5083522;28;20490;-66
2022/08/14 09:36:45;;;;;;;;;;;26.20;43.50;;;;;;5044438;28;20273;-67
2022/08/14 09:39:29;;;;;;;;;;;26.30;43.50;;;;;;5081309;28;20442;-67
2022/08/14 09:42:15;;;;;;;;;;;26.50;42.30;;;;;;5076076;28;20791;-70
2022/08/14 09:44:59;;;;;;;;;;;26.70;41.30;;;;;;5077208;28;19965;-67
2022/08/14 09:47:45;;;;;;;;;;;26.80;40.70;;;;;;5073672;28;19931;-66
2022/08/14 09:50:14;;;;;;;;;;;26.90;40.30;;;;;;5069156;28;20332;-66
2022/08/14 09:52:52;;;;;;;;;;;27.00;39.50;;;;;;5062942;28;19921;-66
2022/08/14 09:55:19;;;;;;;;;;;27.20;39.60;;;;;;5076773;28;20023;-67
2022/08/14 09:57:45;;;;;;;;;;;27.30;39.00;;;;;;5058883;28;19947;-70
2022/08/14 10:00:13;;;;;;;;;;;27.30;38.10;;;;;;5073560;28;19955;-66
2022/08/14 10:02:50;;;;;;;;;;;27.50;38.00;;;;;;5083578;28;19920;-66
2022/08/14 10:05:26;;;;;;;;;;;27.70;37.10;;;;;;5080365;28;20010;-66
2022/08/14 10:07:52;;;;;;;;;;;27.70;35.60;;;;;;5086068;28;19944;-67
2022/08/14 10:10:27;;;;;;;;;;;27.70;36.40;;;;;;5083239;28;20008;-66
2022/08/14 10:12:54;;;;;;;;;;;28.00;36.20;;;;;;5085013;28;19977;-68
2022/08/14 10:15:21;;;;;;;;;;;28.10;35.60;;;;;;5087928;28;19912;-67
2022/08/14 10:17:52;;;;;;;;;;;28.10;34.60;;;;;;5082897;28;20003;-67
2022/08/14 10:20:34;;;;;;;;;;;28.20;34.30;;;;;;5074161;28;19924;-66
2022/08/14 10:23:09;;;;;;;;;;;28.40;33.40;;;;;;5078825;28;19912;-67
2022/08/14 10:25:43;;;;;;;;;;;28.50;32.20;;;;;;5078808;28;19912;-65
2022/08/14 10:28:09;;;;;;;;;;;28.50;32.30;;;;;;5064510;28;20425;-66
2022/08/14 10:30:36;;;;;;;;;;;28.60;31.10;;;;;;5085388;28;19943;-65
2022/08/14 10:33:02;;;;;;;;;;;28.60;31.20;;;;;;5066181;28;19918;-66
2022/08/14 10:35:38;;;;;;;;;;;28.90;31.40;;;;;;5083203;28;19920;-65
2022/08/14 10:38:03;;;;;;;;;;;28.90;30.50;;;;;;5081879;28;19912;-66
2022/08/14 10:40:30;;;;;;;;;;;29.00;30.00;;;;;;5078521;28;19923;-67
2022/08/14 10:42:56;;;;;;;;;;;29.10;29.90;;;;;;5081430;28;19951;-67
2022/08/14 10:45:23;;;;;;;;;;;29.40;29.70;;;;;;5080498;28;19920;-67
2022/08/14 10:47:51;;;;;;;;;;;29.40;29.40;;;;;;5081579;28;20346;-65
2022/08/14 10:50:27;;;;;;;;;;;29.40;29.30;;;;;;5075511;28;19916;-67
2022/08/14 10:52:55;;;;;;;;;;;29.60;28.30;;;;;;5080261;28;20383;-66
2022/08/14 10:55:21;;;;;;;;;;;29.70;28.60;;;;;;5073159;28;19912;-66
2022/08/14 10:57:49;;;;;;;;;;;29.80;28.40;;;;;;5064074;28;20334;-66
2022/08/14 11:00:16;;;;;;;;;;;29.70;27.30;;;;;;5075183;28;20320;-68
2022/08/14 11:02:42;;;;;;;;;;;29.80;27.10;;;;;;5082097;28;20295;-67
2022/08/14 11:05:17;;;;;;;;;;;29.80;26.30;;;;;;5081660;28;19956;-67
2022/08/14 11:07:56;;;;;;;;;;;30.00;25.60;;;;;;5078200;28;19912;-66
2022/08/14 11:10:23;;;;;;;;;;;30.20;25.20;;;;;;5084794;28;20346;-66
2022/08/14 11:12:50;;;;;;;;;;;30.20;24.40;;;;;;5077923;28;20026;-67
2022/08/14 11:15:20;;;;;;;;;;;30.20;24.80;;;;;;5082056;28;20354;-66
2022/08/14 11:17:47;;;;;;;;;;;30.30;24.30;;;;;;5068260;28;20269;-69
2022/08/14 11:20:17;;;;;;;;;;;30.30;24.90;;;;;;5095240;28;19927;-67
2022/08/14 11:22:43;;;;;;;;;;;30.10;25.30;;;;;;5082444;28;20354;-68
2022/08/14 11:25:10;;;;;;;;;;;30.20;24.70;;;;;;5073455;28;19971;-67
2022/08/14 11:27:37;;;;;;;;;;;30.20;23.80;;;;;;5078280;28;19912;-67
2022/08/14 11:30:05;;;;;;;;;;;30.20;22.80;;;;;;5080693;28;20839;-67
2022/08/14 11:32:31;;;;;;;;;;;30.20;22.40;;;;;;5088859;28;19919;-67
2022/08/14 11:35:02;;;;;;;;;;;30.20;22.40;;;;;;5077733;28;19912;-68
2022/08/14 11:37:29;;;;;;;;;;;30.50;23.00;;;;;;5080456;28;20040;-68
2022/08/14 11:39:55;;;;;;;;;;;30.60;20.50;;;;;;5059138;28;19957;-67
2022/08/14 11:42:22;;;;;;;;;;;30.60;20.60;;;;;;5080665;28;21303;-68
2022/08/14 11:44:48;;;;;;;;;;;30.60;19.80;;;;;;5078345;28;19991;-67
2022/08/14 11:47:18;;;;;;;;;;;30.50;20.70;;;;;;5085454;28;19916;-67
2022/08/14 11:49:45;;;;;;;;;;;30.40;20.10;;;;;;5085695;28;19976;-67
2022/08/14 11:52:11;;;;;;;;;;;30.50;20.30;;;;;;5099680;28;19916;-67
2022/08/14 11:54:37;;;;;;;;;;;30.60;22.80;;;;;;5091198;28;19912;-66
2022/08/14 11:57:04;;;;;;;;;;;30.60;24.20;;;;;;5075834;28;19967;-66
2022/08/14 11:59:31;;;;;;;;;;;30.50;20.80;;;;;;5069149;28;19916;-67
2022/08/14 12:02:17;;;;;;;;;;;30.60;19.90;;;;;;5088695;28;19920;-66
2022/08/14 12:04:49;;;;;;;;;;;30.60;20.60;;;;;;5085007;28;20562;-67
2022/08/14 12:07:15;;;;;;;;;;;30.70;20.30;;;;;;5085938;28;20408;-66
2022/08/14 12:09:42;;;;;;;;;;;30.90;19.70;;;;;;5067174;28;20015;-67
2022/08/14 12:12:15;;;;;;;;;;;30.90;19.40;;;;;;5083660;28;19995;-67
2022/08/14 12:14:47;;;;;;;;;;;30.90;19.10;;;;;;5088886;28;19913;-66
2022/08/14 12:17:13;;;;;;;;;;;30.80;19.80;;;;;;5085796;28;19912;-68
2022/08/14 12:19:50;;;;;;;;;;;31.00;20.00;;;;;;5080725;28;19916;-68
2022/08/14 12:22:15;;;;;;;;;;;31.10;19.70;;;;;;5079300;28;19935;-66
2022/08/14 12:24:43;;;;;;;;;;;31.30;19.90;;;;;;5083776;28;19979;-66
2022/08/14 12:27:09;;;;;;;;;;;31.30;19.10;;;;;;5065685;28;19978;-67
2022/08/14 12:29:34;;;;;;;;;;;31.50;19.30;;;;;;5091907;28;19916;-66
2022/08/14 12:32:03;;;;;;;;;;;31.60;20.00;;;;;;5089568;28;19916;-67
2022/08/14 12:34:33;;;;;;;;;;;31.70;20.20;;;;;;5085165;28;19954;-67
2022/08/14 12:37:06;;;;;;;;;;;31.80;21.20;;;;;;5082300;28;19952;-66
2022/08/14 12:39:32;;;;;;;;;;;31.80;22.80;;;;;;5068376;28;19945;-66
2022/08/14 12:42:05;;;;;;;;;;;31.50;22.70;;;;;;5086450;28;19917;-65
2022/08/14 12:44:42;;;;;;;;;;;31.30;20.40;;;;;;5095320;28;19915;-67
2022/08/14 12:47:13;;;;;;;;;;;31.40;20.00;;;;;;5092040;28;20025;-65
2022/08/14 12:49:51;;;;;;;;;;;31.50;20.90;;;;;;5089663;28;19912;-66
2022/08/14 12:52:25;;;;;;;;;;;31.50;20.60;;;;;;5093672;28;19920;-66
2022/08/14 12:54:58;;;;;;;;;;;31.50;20.40;;;;;;5095604;28;19935;-67
2022/08/14 12:57:31;;;;;;;;;;;31.70;19.70;;;;;;5065949;28;19921;-67
2022/08/14 13:00:16;;;;;;;;;;;31.80;19.50;;;;;;5091332;28;19916;-67
2022/08/14 13:02:43;;;;;;;;;;;31.90;20.00;;;;;;5094635;28;19916;-67
2022/08/14 13:05:10;;;;;;;;;;;32.20;19.70;;;;;;5092607;28;19920;-66
2022/08/14 13:07:38;;;;;;;;;;;32.30;18.60;;;;;;5091282;28;19980;-65
2022/08/14 13:10:05;;;;;;;;;;;32.30;18.40;;;;;;5093677;28;19948;-65
2022/08/14 13:12:31;;;;;;;;;;;32.30;18.50;;;;;;5098627;28;20494;-67
2022/08/14 13:15:00;;;;;;;;;;;32.50;18.70;;;;;;5093976;28;19912;-67
2022/08/14 13:17:26;;;;;;;;;;;32.50;18.30;;;;;;5102618;28;19920;-67
2022/08/14 13:19:54;;;;;;;;;;;32.50;18.50;;;;;;5093121;28;19916;-67
2022/08/14 13:22:25;;;;;;;;;;;32.60;18.70;;;;;;5091287;28;19925;-66
2022/08/14 13:24:51;;;;;;;;;;;32.70;18.80;;;;;;5097447;28;20546;-67
2022/08/14 13:27:19;;;;;;;;;;;32.70;18.10;;;;;;5099749;28;19912;-66
2022/08/14 13:29:45;;;;;;;;;;;32.60;18.10;;;;;;5094957;28;19924;-67
2022/08/14 13:32:11;;;;;;;;;;;32.60;18.50;;;;;;5098375;28;20302;-66
2022/08/14 13:34:39;;;;;;;;;;;32.60;18.50;;;;;;5098153;28;19916;-68
2022/08/14 13:37:06;;;;;;;;;;;32.70;18.40;;;;;;5097551;28;20020;-66
2022/08/14 13:39:32;;;;;;;;;;;32.50;18.90;;;;;;5092403;28;19924;-66
2022/08/14 13:42:00;;;;;;;;;;;32.50;17.60;;;;;;5085575;28;19912;-67
2022/08/14 13:44:26;;;;;;;;;;;32.40;18.10;;;;;;5093425;28;19923;-67
2022/08/14 13:46:51;;;;;;;;;;;32.50;17.60;;;;;;5086697;28;19912;-67
2022/08/14 13:49:18;;;;;;;;;;;32.60;18.00;;;;;;5093179;28;20333;-66
2022/08/14 13:51:49;;;;;;;;;;;32.40;18.00;;;;;;5089294;28;19923;-68
2022/08/14 13:54:17;;;;;;;;;;;32.50;18.10;;;;;;5071139;28;19916;-68
2022/08/14 13:56:43;;;;;;;;;;;32.30;17.80;;;;;;5086137;28;19919;-71
2022/08/14 13:59:09;;;;;;;;;;;32.30;17.60;;;;;;5085741;28;19928;-69
2022/08/14 14:01:35;;;;;;;;;;;32.30;17.90;;;;;;5064067;28;19919;-67
2022/08/14 14:04:05;;;;;;;;;;;32.30;17.80;;;;;;5086385;28;19920;-66
2022/08/14 14:09:35;;;;;;;;;;;32.20;19.00;;;;;;5087694;28;19959;-67
2022/08/14 14:12:01;;;;;;;;;;;32.20;18.30;;;;;;5088101;28;19920;-67
2022/08/14 14:14:28;;;;;;;;;;;32.20;18.00;;;;;;5076611;28;20376;-68
2022/08/14 14:16:54;;;;;;;;;;;32.20;17.90;;;;;;5073458;28;20426;-67
2022/08/14 14:19:21;;;;;;;;;;;32.30;19.30;;;;;;5087334;28;21605;-66
2022/08/14 14:21:50;;;;;;;;;;;32.30;17.80;;;;;;5071031;28;20402;-67
2022/08/14 14:24:16;;;;;;;;;;;32.20;17.90;;;;;;5092321;28;19921;-68
2022/08/14 14:26:46;;;;;;;;;;;32.30;17.20;;;;;;5092031;28;19919;-68
2022/08/14 14:29:13;;;;;;;;;;;32.30;17.70;;;;;;5087236;28;19916;-67
2022/08/14 14:31:39;;;;;;;;;;;32.30;16.50;;;;;;5084798;28;19918;-67
2022/08/14 14:34:07;;;;;;;;;;;32.50;18.30;;;;;;5080730;28;19916;-66
2022/08/14 14:36:33;;;;;;;;;;;32.60;17.30;;;;;;5087397;28;19916;-66
2022/08/14 14:39:00;;;;;;;;;;;32.60;17.20;;;;;;5064696;28;19931;-67
2022/08/14 14:41:29;;;;;;;;;;;32.60;16.90;;;;;;5088679;28;20353;-66